createdAt,value
2023-05-05T00:11:57.355Z,3.65
2023-05-05T00:14:24.277Z,4.13
2023-05-05T00:16:51.374Z,4.23
2023-05-05T00:19:18.423Z,4.15
2023-05-05T00:21:48.722Z,4.47
2023-05-05T00:24:15.758Z,4.45
2023-05-05T00:26:42.530Z,4.20
2023-05-05T00:29:09.443Z,4.68
2023-05-05T00:31:38.068Z,3.90
2023-05-05T00:34:04.961Z,4.13
2023-05-05T00:36:32.174Z,3.67
2023-05-05T00:38:59.100Z,3.97
2023-05-05T00:41:26.255Z,4.10
2023-05-05T00:43:53.259Z,4.22
2023-05-05T00:46:31.784Z,4.30
2023-05-05T00:48:59.930Z,4.28
2023-05-05T00:51:28.484Z,4.13
2023-05-05T00:53:56.058Z,4.25
2023-05-05T00:56:23.533Z,3.75
2023-05-05T00:58:50.699Z,5.07
2023-05-05T01:01:18.016Z,4.55
2023-05-05T01:03:45.101Z,4.63
2023-05-05T01:06:35.188Z,4.10
2023-05-05T01:09:11.757Z,4.32
2023-05-05T01:12:01.275Z,4.47
2023-05-05T01:15:00.074Z,5.07
2023-05-05T01:17:36.482Z,4.28
2023-05-05T01:20:32.257Z,4.60
2023-05-05T01:23:04.526Z,4.30
2023-05-05T01:25:43.357Z,4.80
2023-05-05T01:28:19.124Z,4.68
2023-05-05T01:31:10.940Z,4.93
2023-05-05T01:33:48.143Z,4.78
2023-05-05T01:36:23.151Z,4.80
2023-05-05T01:38:58.201Z,5.15
2023-05-05T01:41:30.367Z,5.10
2023-05-05T01:44:01.885Z,7.88
2023-05-05T01:46:30.634Z,4.80
2023-05-05T01:48:59.178Z,5.30
2023-05-05T01:51:28.273Z,5.30
2023-05-05T01:54:02.280Z,4.80
2023-05-05T01:56:31.600Z,4.70
2023-05-05T01:59:00.781Z,5.10
2023-05-05T02:01:29.130Z,4.88
2023-05-05T02:03:57.540Z,5.13
2023-05-05T02:06:27.143Z,5.32
2023-05-05T02:08:54.872Z,5.43
2023-05-05T02:11:22.119Z,5.32
2023-05-05T02:13:51.416Z,5.13
2023-05-05T02:16:21.070Z,5.40
2023-05-05T02:18:49.501Z,5.50
2023-05-05T02:21:23.225Z,5.05
2023-05-05T02:23:52.213Z,4.72
2023-05-05T02:26:22.016Z,5.57
2023-05-05T02:29:20.311Z,6.10
2023-05-05T02:31:51.013Z,6.20
2023-05-05T02:34:25.599Z,5.43
2023-05-05T02:36:55.939Z,5.68
2023-05-05T02:39:32.037Z,5.75
2023-05-05T02:42:04.943Z,5.70
2023-05-05T02:44:33.412Z,6.28
2023-05-05T02:47:05.186Z,6.18
2023-05-05T02:49:34.841Z,6.07
2023-05-05T02:52:02.064Z,6.68
2023-05-05T02:54:29.332Z,6.50
2023-05-05T02:56:58.257Z,5.97
2023-05-05T02:59:40.913Z,6.38
2023-05-05T03:02:19.008Z,6.50
2023-05-05T03:04:52.998Z,6.75
2023-05-05T03:07:26.993Z,6.53
2023-05-05T03:10:27.916Z,7.07
2023-05-05T03:12:59.590Z,6.35
2023-05-05T03:15:31.035Z,7.47
2023-05-05T03:18:07.034Z,7.28
2023-05-05T03:20:34.434Z,6.70
2023-05-05T03:25:50.331Z,6.95
2023-05-05T03:28:18.333Z,7.07
2023-05-05T03:30:45.376Z,6.80
2023-05-05T03:33:12.491Z,7.27
2023-05-05T03:35:44.088Z,6.75
2023-05-05T03:41:07.317Z,7.15
2023-05-05T03:43:37.589Z,7.07
2023-05-05T03:46:04.762Z,6.82
2023-05-05T03:48:34.596Z,7.53
2023-05-05T03:51:02.109Z,7.75
2023-05-05T03:53:38.190Z,7.63
2023-05-05T03:56:05.718Z,7.65
2023-05-05T03:58:32.821Z,7.60
2023-05-05T04:01:00.140Z,8.10
2023-05-05T04:03:28.661Z,7.45
2023-05-05T04:05:56.252Z,7.55
2023-05-05T04:08:23.206Z,8.20
2023-05-05T04:10:50.668Z,8.43
2023-05-05T04:13:17.705Z,7.65
2023-05-05T04:15:48.256Z,7.90
2023-05-05T04:18:15.328Z,7.60
2023-05-05T04:20:42.730Z,7.20
2023-05-05T04:23:17.631Z,7.63
2023-05-05T04:25:50.139Z,7.72
2023-05-05T04:28:21.768Z,7.80
2023-05-05T04:30:49.044Z,7.88
2023-05-05T04:33:16.157Z,8.32
2023-05-05T04:35:43.206Z,7.73
2023-05-05T04:38:10.156Z,8.33
2023-05-05T04:40:41.580Z,8.87
2023-05-05T04:43:08.871Z,9.40
2023-05-05T04:45:35.817Z,7.97
2023-05-05T04:48:02.709Z,7.47
2023-05-05T04:50:32.405Z,8.57
2023-05-05T04:53:03.156Z,9.57
2023-05-05T04:55:29.898Z,8.30
2023-05-05T04:57:56.798Z,8.95
2023-05-05T05:00:26.642Z,8.95
2023-05-05T05:02:55.496Z,8.38
2023-05-05T05:05:23.096Z,8.23
2023-05-05T05:07:59.465Z,12.40
2023-05-05T05:10:26.608Z,12.68
2023-05-05T05:12:53.868Z,8.27
2023-05-05T05:15:21.148Z,9.48
2023-05-05T05:17:48.240Z,10.23
2023-05-05T05:20:15.153Z,9.30
2023-05-05T05:22:42.602Z,8.43
2023-05-05T05:25:09.807Z,7.68
2023-05-05T05:27:37.106Z,8.15
2023-05-05T05:30:04.369Z,8.00
2023-05-05T05:32:32.350Z,8.27
2023-05-05T05:35:02.752Z,8.77
2023-05-05T05:37:33.137Z,9.00
2023-05-05T05:40:00.247Z,8.90
2023-05-05T05:45:26.614Z,9.25
2023-05-05T05:47:53.801Z,9.35
2023-05-05T05:50:21.320Z,9.02
2023-05-05T05:52:48.288Z,8.90
2023-05-05T05:55:15.495Z,9.00
2023-05-05T05:57:42.595Z,9.02
2023-05-05T06:00:10.137Z,9.03
2023-05-05T06:05:11.262Z,9.07
2023-05-05T06:07:38.583Z,9.55
2023-05-05T06:10:22.928Z,10.05
2023-05-05T06:12:53.655Z,10.43
2023-05-05T06:15:20.843Z,10.35
2023-05-05T06:17:48.229Z,10.85
2023-05-05T06:20:15.458Z,10.90
2023-05-05T06:22:42.529Z,11.25
2023-05-05T06:25:09.656Z,11.93
2023-05-05T06:55:15.104Z,13.05
2023-05-05T17:58:40.315Z,6.72
2023-05-05T18:01:07.136Z,6.78
2023-05-05T18:03:34.145Z,7.50
2023-05-05T18:06:02.723Z,9.40
2023-05-05T18:08:29.407Z,9.20
2023-05-05T18:10:56.276Z,11.48
2023-05-05T18:13:23.074Z,14.07
2023-05-05T18:15:49.813Z,13.02
2023-05-05T18:18:16.701Z,13.27
2023-05-05T18:20:44.188Z,12.53
2023-05-05T18:23:11.366Z,14.88
2023-05-05T18:25:38.190Z,16.17
2023-05-05T18:28:05.667Z,16.45
2023-05-05T18:30:33.183Z,18.10
2023-05-05T18:33:00.320Z,20.63
2023-05-05T18:35:27.238Z,20.75
2023-05-05T18:37:55.191Z,21.37
2023-05-05T18:40:22.815Z,25.77
2023-05-05T18:42:50.004Z,22.20
2023-05-05T18:45:16.960Z,19.92
2023-05-05T18:47:44.396Z,19.30
2023-05-05T18:50:11.651Z,20.95
2023-05-05T18:52:38.495Z,22.42
2023-05-05T18:55:06.017Z,22.55
2023-05-05T18:57:32.951Z,23.13
2023-05-05T19:00:00.716Z,22.20
2023-05-05T19:02:27.508Z,20.92
2023-05-05T19:04:54.296Z,22.97
2023-05-05T19:07:33.817Z,20.70
2023-05-05T19:10:02.453Z,30.85
2023-05-05T19:12:29.152Z,20.52
2023-05-05T19:14:55.987Z,18.10
2023-05-05T19:17:22.810Z,19.77
2023-05-05T19:19:50.004Z,20.38
2023-05-05T19:22:17.753Z,18.92
2023-05-05T19:27:16.386Z,17.30
2023-05-05T19:29:43.811Z,19.08
2023-05-05T19:32:11.071Z,19.67
2023-05-05T19:34:37.874Z,24.00
2023-05-05T19:37:04.695Z,21.77
2023-05-05T19:39:31.490Z,20.60
2023-05-05T19:41:58.320Z,19.88
2023-05-05T19:44:25.026Z,18.03
2023-05-05T19:46:53.062Z,17.65
2023-05-05T19:49:19.860Z,19.15
2023-05-05T19:51:49.880Z,19.27
2023-05-05T19:54:17.049Z,19.90
2023-05-05T19:56:43.940Z,21.33
2023-05-05T19:59:11.057Z,21.80
2023-05-05T20:01:38.072Z,21.65
2023-05-05T20:04:05.133Z,21.53
2023-05-05T20:06:32.840Z,22.48
2023-05-05T20:09:00.645Z,26.88
2023-05-05T20:13:54.133Z,25.30
2023-05-05T20:16:22.141Z,24.37
2023-05-05T20:18:49.217Z,24.30
2023-05-05T20:21:17.448Z,25.10
2023-05-05T20:23:45.699Z,25.73
2023-05-05T20:26:12.853Z,24.48
2023-05-05T20:28:40.963Z,25.60
2023-05-05T20:31:10.500Z,26.48
2023-05-05T20:36:04.464Z,23.20
2023-05-05T20:38:31.355Z,24.60
2023-05-05T20:40:58.315Z,24.43
2023-05-05T20:43:25.631Z,25.87
2023-05-05T20:45:52.685Z,26.63
2023-05-05T20:48:19.531Z,25.90
2023-05-05T20:50:46.508Z,28.77
2023-05-05T20:53:16.341Z,28.10
2023-05-05T20:55:43.346Z,29.48
2023-05-05T20:58:10.100Z,27.47
2023-05-05T21:00:36.983Z,30.67
2023-05-05T21:03:04.551Z,28.30
2023-05-05T21:05:31.846Z,28.65
2023-05-05T21:08:00.803Z,27.63
2023-05-05T21:10:29.151Z,26.77
2023-05-05T21:15:23.180Z,24.92
2023-05-05T21:17:50.029Z,26.07
2023-05-05T21:20:18.843Z,24.40
2023-05-05T21:22:45.926Z,24.10
2023-05-05T21:25:17.644Z,24.30
2023-05-05T21:27:45.068Z,25.90
2023-05-05T21:30:12.425Z,28.13
2023-05-05T21:32:40.761Z,27.27
2023-05-05T21:35:08.883Z,28.05
2023-05-05T21:37:38.083Z,27.92
2023-05-05T21:40:14.138Z,28.02
2023-05-05T21:42:41.708Z,28.58
2023-05-05T21:45:09.337Z,28.83
2023-05-05T21:47:36.161Z,28.75
2023-05-05T21:50:03.125Z,29.03
2023-05-05T21:52:29.810Z,26.37
2023-05-05T21:54:56.676Z,27.58
2023-05-05T21:57:23.518Z,26.25
2023-05-05T21:59:50.277Z,25.98
2023-05-05T22:02:16.977Z,24.77
2023-05-05T22:04:46.319Z,24.50
2023-05-05T22:07:13.007Z,26.05
2023-05-05T22:09:39.694Z,24.75
2023-05-05T22:12:06.544Z,24.55
2023-05-05T22:14:33.234Z,25.75
2023-05-05T22:16:59.932Z,25.98
2023-05-05T22:19:26.734Z,26.08
2023-05-05T22:21:53.706Z,26.30
2023-05-05T22:24:20.615Z,24.13
2023-05-05T22:26:48.133Z,25.03
2023-05-05T22:29:14.808Z,25.95
2023-05-05T22:31:41.804Z,26.67
2023-05-05T22:34:08.592Z,24.97
2023-05-05T22:36:35.541Z,28.33
2023-05-05T22:39:02.230Z,26.27
2023-05-05T22:41:28.973Z,27.85
2023-05-05T22:43:58.235Z,26.73
2023-05-05T22:46:25.052Z,26.13
2023-05-05T22:48:53.323Z,25.80
2023-05-05T22:51:20.059Z,30.23
2023-05-05T22:53:46.742Z,29.90
2023-05-05T22:56:13.690Z,28.13
2023-05-05T22:58:40.615Z,28.53
2023-05-05T23:01:07.531Z,29.98
2023-05-05T23:03:34.313Z,29.83
2023-05-05T23:06:01.425Z,29.58
2023-05-05T23:08:28.206Z,29.90
2023-05-05T23:10:54.989Z,29.05
2023-05-05T23:13:21.749Z,28.58
2023-05-05T23:15:48.474Z,28.25
2023-05-05T23:18:15.190Z,28.40
2023-05-05T23:20:42.069Z,25.48
2023-05-05T23:23:08.773Z,24.67
2023-05-05T23:25:35.960Z,24.48
2023-05-05T23:28:02.958Z,24.05
2023-05-05T23:30:29.814Z,23.87
2023-05-05T23:32:58.260Z,23.50
2023-05-05T23:35:25.131Z,23.42
2023-05-05T23:37:51.918Z,24.98
2023-05-05T23:40:19.658Z,27.25
2023-05-05T23:42:46.431Z,27.55
2023-05-05T23:45:13.370Z,30.30
2023-05-05T23:47:40.169Z,30.97
2023-05-05T23:50:07.581Z,29.15
2023-05-05T23:52:34.269Z,29.95
2023-05-05T23:55:01.099Z,30.20
